aviador You're here:

KFCM Decoded Metar

MNPLS/FLYING CLD in MN, USA
Report Time2018-07-21 23:53:00
UTC Time2018-07-22 00:46:27
Flight Rules vfr VFR
Wind020° at 08 kt
W.Decomp.*RWY 36: 7.7 kt HW 2.3 kt RCW
RWY 10: 1.0 kt HW 7.9 kt LCW
W.Rank020° ranks 29
Current wind is above 020° avg. (6.9)
Visibility9999 m
Phenomena:N/A
Clouds:Scattered 048 Hf
Expected CloudBase > 4,000 ft AGL from Temp-Dew spread
CeilingNone
Temp26°C (ISA +13)
Dew Point16°C (54% RH)
AAT25.1°C
QNH1016 hPa
Density Alt2,543 ft
Elevation919 ft
Report Wrong Elevation
Raw Report
KFCM 212353Z 02008KT 10SM SCT048 26/16 A3001 RMK AO2 SLP159
T02610161 10278 20256 51000=

Extra information for KFCM:More info

Metar Taf Metar & Taf Last 4 Metars F.Rules Stats Wind Profile Meteogram Temp Stats Airport Information Weather charts Add Link Nearby VenuesMetar ALERT Operation Metar Decoded Social comments

AIRNAV info for KFCM